sensor_id;sensor_type;location;lat;lon;timestamp;pressure;altitude;pressure_sealevel;temperature;humidity
71149;BME280;59072;42.144;25.200;2023-04-20T00:01:38;99676.00;;;10.30;100.00
71149;BME280;59072;42.144;25.200;2023-04-20T00:04:03;99661.09;;;10.40;100.00
71149;BME280;59072;42.144;25.200;2023-04-20T00:06:29;99659.63;;;9.96;100.00
71149;BME280;59072;42.144;25.200;2023-04-20T00:08:57;99648.59;;;9.92;100.00
71149;BME280;59072;42.144;25.200;2023-04-20T00:11:28;99652.84;;;9.81;100.00
71149;BME280;59072;42.144;25.200;2023-04-20T00:13:53;99655.34;;;9.76;100.00
71149;BME280;59072;42.144;25.200;2023-04-20T00:16:19;99650.03;;;9.76;100.00
71149;BME280;59072;42.144;25.200;2023-04-20T00:18:45;99633.09;;;9.89;100.00
71149;BME280;59072;42.144;25.200;2023-04-20T00:21:11;99647.00;;;9.91;100.00
71149;BME280;59072;42.144;25.200;2023-04-20T00:23:37;99642.28;;;9.75;100.00
71149;BME280;59072;42.144;25.200;2023-04-20T00:26:03;99637.28;;;9.48;100.00
71149;BME280;59072;42.144;25.200;2023-04-20T00:28:28;99634.88;;;9.77;100.00
71149;BME280;59072;42.144;25.200;2023-04-20T00:30:54;99636.94;;;9.93;100.00
71149;BME280;59072;42.144;25.200;2023-04-20T00:33:19;99639.13;;;9.96;100.00
71149;BME280;59072;42.144;25.200;2023-04-20T00:35:45;99638.06;;;10.16;100.00
71149;BME280;59072;42.144;25.200;2023-04-20T00:38:10;99629.06;;;9.98;100.00
71149;BME280;59072;42.144;25.200;2023-04-20T00:40:36;99629.38;;;9.90;100.00
71149;BME280;59072;42.144;25.200;2023-04-20T00:43:11;99624.84;;;9.91;100.00
71149;BME280;59072;42.144;25.200;2023-04-20T00:45:37;99633.63;;;10.10;100.00
71149;BME280;59072;42.144;25.200;2023-04-20T00:48:03;99639.28;;;10.01;100.00
71149;BME280;59072;42.144;25.200;2023-04-20T00:50:29;99632.06;;;9.72;100.00
71149;BME280;59072;42.144;25.200;2023-04-20T00:52:54;99634.81;;;9.47;100.00
71149;BME280;59072;42.144;25.200;2023-04-20T00:55:21;99639.97;;;9.23;100.00
71149;BME280;59072;42.144;25.200;2023-04-20T00:57:47;99645.13;;;8.99;100.00
71149;BME280;59072;42.144;25.200;2023-04-20T01:00:13;99633.22;;;9.02;100.00
71149;BME280;59072;42.144;25.200;2023-04-20T01:02:39;99643.91;;;9.39;100.00
71149;BME280;59072;42.144;25.200;2023-04-20T01:05:05;99638.75;;;9.62;100.00
71149;BME280;59072;42.144;25.200;2023-04-20T01:07:31;99642.28;;;9.38;100.00
71149;BME280;59072;42.144;25.200;2023-04-20T01:09:56;99630.88;;;9.31;100.00
71149;BME280;59072;42.144;25.200;2023-04-20T01:12:22;99643.69;;;9.40;100.00
71149;BME280;59072;42.144;25.200;2023-04-20T01:14:47;99630.75;;;9.44;100.00
71149;BME280;59072;42.144;25.200;2023-04-20T01:17:13;99641.25;;;9.57;100.00
71149;BME280;59072;42.144;25.200;2023-04-20T01:19:39;99639.47;;;9.33;100.00
71149;BME280;59072;42.144;25.200;2023-04-20T01:22:06;99636.81;;;9.51;100.00
71149;BME280;59072;42.144;25.200;2023-04-20T01:24:32;99640.06;;;9.53;100.00
71149;BME280;59072;42.144;25.200;2023-04-20T01:26:58;99639.53;;;9.63;100.00
71149;BME280;59072;42.144;25.200;2023-04-20T01:29:23;99630.81;;;9.19;100.00
71149;BME280;59072;42.144;25.200;2023-04-20T01:31:48;99620.22;;;8.94;100.00
71149;BME280;59072;42.144;25.200;2023-04-20T01:34:14;99633.34;;;8.89;100.00
71149;BME280;59072;42.144;25.200;2023-04-20T01:36:42;99613.66;;;8.71;100.00
71149;BME280;59072;42.144;25.200;2023-04-20T01:39:07;99639.34;;;9.28;100.00
71149;BME280;59072;42.144;25.200;2023-04-20T01:41:33;99630.75;;;9.44;100.00
71149;BME280;59072;42.144;25.200;2023-04-20T01:43:58;99632.53;;;9.50;100.00
71149;BME280;59072;42.144;25.200;2023-04-20T01:46:24;99630.47;;;9.52;100.00
71149;BME280;59072;42.144;25.200;2023-04-20T01:48:50;99633.41;;;9.62;100.00
71149;BME280;59072;42.144;25.200;2023-04-20T01:51:15;99639.63;;;9.19;100.00
71149;BME280;59072;42.144;25.200;2023-04-20T01:53:40;99633.72;;;8.92;100.00
71149;BME280;59072;42.144;25.200;2023-04-20T01:56:06;99633.41;;;9.25;100.00
71149;BME280;59072;42.144;25.200;2023-04-20T01:58:31;99620.25;;;9.31;100.00
71149;BME280;59072;42.144;25.200;2023-04-20T02:00:57;99629.03;;;9.50;100.00
71149;BME280;59072;42.144;25.200;2023-04-20T02:03:22;99619.13;;;9.57;100.00
71149;BME280;59072;42.144;25.200;2023-04-20T02:05:48;99629.88;;;9.50;100.00
71149;BME280;59072;42.144;25.200;2023-04-20T02:08:13;99623.28;;;9.34;100.00
71149;BME280;59072;42.144;25.200;2023-04-20T02:10:38;99625.66;;;9.61;100.00
71149;BME280;59072;42.144;25.200;2023-04-20T02:13:04;99621.69;;;9.82;100.00
71149;BME280;59072;42.144;25.200;2023-04-20T02:15:29;99624.91;;;9.54;100.00
71149;BME280;59072;42.144;25.200;2023-04-20T02:17:55;99628.63;;;9.09;100.00
71149;BME280;59072;42.144;25.200;2023-04-20T02:20:21;99625.97;;;9.09;100.00
71149;BME280;59072;42.144;25.200;2023-04-20T02:22:47;99637.50;;;9.03;100.00
71149;BME280;59072;42.144;25.200;2023-04-20T02:25:13;99631.91;;;9.11;100.00
71149;BME280;59072;42.144;25.200;2023-04-20T02:27:38;99638.28;;;8.85;100.00
71149;BME280;59072;42.144;25.200;2023-04-20T02:30:04;99632.81;;;8.80;100.00
71149;BME280;59072;42.144;25.200;2023-04-20T02:32:30;99634.56;;;9.11;100.00
71149;BME280;59072;42.144;25.200;2023-04-20T02:34:56;99632.88;;;9.35;100.00
71149;BME280;59072;42.144;25.200;2023-04-20T02:37:21;99628.09;;;9.62;100.00
71149;BME280;59072;42.144;25.200;2023-04-20T02:39:46;99627.34;;;9.55;100.00
71149;BME280;59072;42.144;25.200;2023-04-20T02:42:12;99626.16;;;9.70;100.00
71149;BME280;59072;42.144;25.200;2023-04-20T02:44:37;99617.34;;;9.69;100.00
71149;BME280;59072;42.144;25.200;2023-04-20T02:47:03;99611.22;;;9.69;100.00
71149;BME280;59072;42.144;25.200;2023-04-20T02:49:28;99629.03;;;9.50;100.00
71149;BME280;59072;42.144;25.200;2023-04-20T02:51:54;99624.19;;;9.03;100.00
71149;BME280;59072;42.144;25.200;2023-04-20T02:54:19;99633.28;;;8.95;100.00
71149;BME280;59072;42.144;25.200;2023-04-20T02:56:45;99622.31;;;9.29;100.00
71149;BME280;59072;42.144;25.200;2023-04-20T02:59:10;99627.50;;;9.42;100.00
71149;BME280;59072;42.144;25.200;2023-04-20T03:01:35;99620.09;;;9.62;100.00
71149;BME280;59072;42.144;25.200;2023-04-20T03:04:01;99622.59;;;9.76;100.00
71149;BME280;59072;42.144;25.200;2023-04-20T03:06:26;99624.66;;;9.74;100.00
71149;BME280;59072;42.144;25.200;2023-04-20T03:08:52;99633.75;;;9.66;100.00
71149;BME280;59072;42.144;25.200;2023-04-20T03:11:18;99625.22;;;9.94;100.00
71149;BME280;59072;42.144;25.200;2023-04-20T03:13:44;99630.41;;;9.89;100.00
71149;BME280;59072;42.144;25.200;2023-04-20T03:16:10;99626.13;;;9.88;100.00
71149;BME280;59072;42.144;25.200;2023-04-20T03:18:35;99617.41;;;9.81;100.00
71149;BME280;59072;42.144;25.200;2023-04-20T03:21:01;99627.47;;;9.79;100.00
71149;BME280;59072;42.144;25.200;2023-04-20T03:23:26;99626.44;;;9.61;100.00
71149;BME280;59072;42.144;25.200;2023-04-20T03:25:52;99631.44;;;8.96;100.00
71149;BME280;59072;42.144;25.200;2023-04-20T03:28:18;99630.31;;;8.85;100.00
71149;BME280;59072;42.144;25.200;2023-04-20T03:30:44;99642.03;;;9.21;100.00
71149;BME280;59072;42.144;25.200;2023-04-20T03:33:09;99622.91;;;9.12;100.00
71149;BME280;59072;42.144;25.200;2023-04-20T03:35:35;99631.34;;;9.28;100.00
71149;BME280;59072;42.144;25.200;2023-04-20T03:38:03;99630.66;;;9.14;100.00
71149;BME280;59072;42.144;25.200;2023-04-20T03:40:28;99633.84;;;9.22;100.00
71149;BME280;59072;42.144;25.200;2023-04-20T03:42:54;99632.88;;;9.17;100.00
71149;BME280;59072;42.144;25.200;2023-04-20T03:45:20;99633.06;;;9.15;100.00
71149;BME280;59072;42.144;25.200;2023-04-20T03:47:45;99626.06;;;9.02;100.00
71149;BME280;59072;42.144;25.200;2023-04-20T03:50:11;99641.00;;;9.03;100.00
71149;BME280;59072;42.144;25.200;2023-04-20T03:52:36;99616.69;;;9.00;100.00
71149;BME280;59072;42.144;25.200;2023-04-20T03:55:02;99637.50;;;9.03;100.00
71149;BME280;59072;42.144;25.200;2023-04-20T03:57:27;99637.19;;;8.93;100.00
71149;BME280;59072;42.144;25.200;2023-04-20T03:59:52;99643.56;;;8.67;100.00
71149;BME280;59072;42.144;25.200;2023-04-20T04:02:18;99634.06;;;8.77;100.00
71149;BME280;59072;42.144;25.200;2023-04-20T04:04:43;99641.47;;;8.94;100.00
71149;BME280;59072;42.144;25.200;2023-04-20T04:07:09;99640.16;;;9.03;100.00
71149;BME280;59072;42.144;25.200;2023-04-20T04:09:35;99640.09;;;8.91;100.00
71149;BME280;59072;42.144;25.200;2023-04-20T04:12:00;99634.66;;;8.54;100.00
71149;BME280;59072;42.144;25.200;2023-04-20T04:14:26;99638.94;;;8.80;100.00
71149;BME280;59072;42.144;25.200;2023-04-20T04:16:52;99644.41;;;8.85;100.00
71149;BME280;59072;42.144;25.200;2023-04-20T04:19:17;99635.75;;;9.15;100.00
71149;BME280;59072;42.144;25.200;2023-04-20T04:21:42;99639.53;;;8.82;100.00
71149;BME280;59072;42.144;25.200;2023-04-20T04:24:08;99639.53;;;8.82;100.00
71149;BME280;59072;42.144;25.200;2023-04-20T04:26:33;99636.47;;;9.04;100.00
71149;BME280;59072;42.144;25.200;2023-04-20T04:28:59;99627.59;;;8.92;100.00
71149;BME280;59072;42.144;25.200;2023-04-20T04:31:25;99628.69;;;9.28;100.00
71149;BME280;59072;42.144;25.200;2023-04-20T04:33:51;99650.78;;;9.47;100.00
71149;BME280;59072;42.144;25.200;2023-04-20T04:36:17;99635.09;;;9.20;100.00
71149;BME280;59072;42.144;25.200;2023-04-20T04:38:43;99647.25;;;9.34;100.00
71149;BME280;59072;42.144;25.200;2023-04-20T04:41:12;99647.38;;;9.58;100.00
71149;BME280;59072;42.144;25.200;2023-04-20T04:43:39;99635.50;;;9.60;100.00
71149;BME280;59072;42.144;25.200;2023-04-20T04:46:09;99640.75;;;9.97;100.00
71149;BME280;59072;42.144;25.200;2023-04-20T04:48:36;99651.69;;;10.08;100.00
71149;BME280;59072;42.144;25.200;2023-04-20T04:51:02;99648.94;;;10.14;100.00
71149;BME280;59072;42.144;25.200;2023-04-20T04:53:27;99652.94;;;10.05;100.00
71149;BME280;59072;42.144;25.200;2023-04-20T04:55:53;99648.06;;;10.02;100.00
71149;BME280;59072;42.144;25.200;2023-04-20T04:58:18;99659.44;;;10.09;100.00
71149;BME280;59072;42.144;25.200;2023-04-20T05:00:43;99666.00;;;10.25;100.00
71149;BME280;59072;42.144;25.200;2023-04-20T05:03:09;99659.94;;;10.36;100.00
71149;BME280;59072;42.144;25.200;2023-04-20T05:05:34;99667.16;;;10.29;100.00
71149;BME280;59072;42.144;25.200;2023-04-20T05:08:00;99657.78;;;10.57;100.00
71149;BME280;59072;42.144;25.200;2023-04-20T05:10:25;99659.97;;;10.60;100.00
71149;BME280;59072;42.144;25.200;2023-04-20T05:12:51;99666.28;;;11.01;100.00
71149;BME280;59072;42.144;25.200;2023-04-20T05:15:17;99662.34;;;10.92;100.00
71149;BME280;59072;42.144;25.200;2023-04-20T05:17:42;99668.16;;;11.12;100.00
71149;BME280;59072;42.144;25.200;2023-04-20T05:20:08;99662.94;;;11.17;100.00
71149;BME280;59072;42.144;25.200;2023-04-20T05:22:35;99667.81;;;11.20;100.00
71149;BME280;59072;42.144;25.200;2023-04-20T05:25:01;99663.50;;;11.43;100.00
71149;BME280;59072;42.144;25.200;2023-04-20T05:27:26;99669.28;;;11.40;100.00
71149;BME280;59072;42.144;25.200;2023-04-20T05:29:52;99654.34;;;11.39;100.00
71149;BME280;59072;42.144;25.200;2023-04-20T05:32:17;99676.16;;;11.36;100.00
71149;BME280;59072;42.144;25.200;2023-04-20T05:34:42;99663.28;;;11.33;100.00
71149;BME280;59072;42.144;25.200;2023-04-20T05:37:08;99663.13;;;11.63;100.00
71149;BME280;59072;42.144;25.200;2023-04-20T05:39:34;99662.63;;;11.78;100.00
71149;BME280;59072;42.144;25.200;2023-04-20T05:41:59;99666.88;;;12.02;100.00
71149;BME280;59072;42.144;25.200;2023-04-20T05:44:24;99667.38;;;11.99;100.00
71149;BME280;59072;42.144;25.200;2023-04-20T05:46:50;99675.38;;;11.99;100.00
71149;BME280;59072;42.144;25.200;2023-04-20T05:49:16;99670.34;;;12.03;100.00
71149;BME280;59072;42.144;25.200;2023-04-20T05:51:41;99673.50;;;12.00;100.00
71149;BME280;59072;42.144;25.200;2023-04-20T05:54:06;99666.91;;;11.91;100.00
71149;BME280;59072;42.144;25.200;2023-04-20T05:56:32;99668.88;;;11.83;100.00
71149;BME280;59072;42.144;25.200;2023-04-20T05:58:58;99667.78;;;12.08;100.00
71149;BME280;59072;42.144;25.200;2023-04-20T06:01:23;99660.78;;;12.19;100.00
71149;BME280;59072;42.144;25.200;2023-04-20T06:03:49;99651.91;;;12.30;100.00
71149;BME280;59072;42.144;25.200;2023-04-20T06:06:14;99669.53;;;12.31;100.00
71149;BME280;59072;42.144;25.200;2023-04-20T06:08:40;99670.88;;;12.45;100.00
71149;BME280;59072;42.144;25.200;2023-04-20T06:11:06;99661.31;;;12.50;100.00
71149;BME280;59072;42.144;25.200;2023-04-20T06:13:31;99675.44;;;12.62;100.00
71149;BME280;59072;42.144;25.200;2023-04-20T06:15:57;99668.38;;;12.73;100.00
71149;BME280;59072;42.144;25.200;2023-04-20T06:18:22;99670.25;;;12.72;100.00
71149;BME280;59072;42.144;25.200;2023-04-20T06:20:48;99669.53;;;12.94;100.00
71149;BME280;59072;42.144;25.200;2023-04-20T06:23:13;99671.72;;;13.14;100.00
71149;BME280;59072;42.144;25.200;2023-04-20T06:25:39;99669.13;;;13.02;100.00
71149;BME280;59072;42.144;25.200;2023-04-20T06:28:05;99652.72;;;12.98;100.00
71149;BME280;59072;42.144;25.200;2023-04-20T06:30:34;99666.44;;;13.02;100.00
71149;BME280;59072;42.144;25.200;2023-04-20T06:33:01;99670.88;;;13.13;100.00
71149;BME280;59072;42.144;25.200;2023-04-20T06:35:27;99670.56;;;13.26;100.00
71149;BME280;59072;42.144;25.200;2023-04-20T06:37:53;99663.91;;;13.29;100.00
71149;BME280;59072;42.144;25.200;2023-04-20T06:40:27;99666.19;;;13.59;100.00
71149;BME280;59072;42.144;25.200;2023-04-20T06:42:53;99666.75;;;13.61;100.00
71149;BME280;59072;42.144;25.200;2023-04-20T06:45:18;99675.97;;;13.71;100.00
71149;BME280;59072;42.144;25.200;2023-04-20T06:47:44;99668.06;;;13.81;100.00
71149;BME280;59072;42.144;25.200;2023-04-20T06:50:10;99674.72;;;14.00;100.00
71149;BME280;59072;42.144;25.200;2023-04-20T06:52:36;99686.28;;;14.28;100.00
71149;BME280;59072;42.144;25.200;2023-04-20T06:55:02;99674.28;;;14.36;100.00
71149;BME280;59072;42.144;25.200;2023-04-20T06:57:28;99679.91;;;14.34;100.00
71149;BME280;59072;42.144;25.200;2023-04-20T06:59:53;99679.06;;;14.56;100.00
71149;BME280;59072;42.144;25.200;2023-04-20T07:02:18;99685.63;;;14.65;99.87
71149;BME280;59072;42.144;25.200;2023-04-20T07:04:44;99677.19;;;14.83;100.00
71149;BME280;59072;42.144;25.200;2023-04-20T07:07:09;99675.53;;;15.15;99.21
71149;BME280;59072;42.144;25.200;2023-04-20T07:09:35;99686.50;;;15.08;96.54
71149;BME280;59072;42.144;25.200;2023-04-20T07:12:01;99682.63;;;14.94;98.27
71149;BME280;59072;42.144;25.200;2023-04-20T07:14:27;99678.53;;;14.86;97.28
71149;BME280;59072;42.144;25.200;2023-04-20T07:16:53;99686.28;;;14.82;90.26
71149;BME280;59072;42.144;25.200;2023-04-20T07:19:18;99683.38;;;14.89;96.55
71149;BME280;59072;42.144;25.200;2023-04-20T07:21:44;99685.97;;;15.11;95.99
71149;BME280;59072;42.144;25.200;2023-04-20T07:24:09;99686.34;;;15.30;90.90
71149;BME280;59072;42.144;25.200;2023-04-20T07:26:34;99684.38;;;15.15;91.98
71149;BME280;59072;42.144;25.200;2023-04-20T07:29:00;99689.09;;;15.35;88.36
71149;BME280;59072;42.144;25.200;2023-04-20T07:31:25;99684.69;;;15.19;81.86
71149;BME280;59072;42.144;25.200;2023-04-20T07:33:51;99689.09;;;14.98;85.00
71149;BME280;59072;42.144;25.200;2023-04-20T07:36:16;99687.19;;;15.31;84.53
71149;BME280;59072;42.144;25.200;2023-04-20T07:38:42;99681.72;;;15.68;82.60
71149;BME280;59072;42.144;25.200;2023-04-20T07:41:08;99679.28;;;15.61;84.96
71149;BME280;59072;42.144;25.200;2023-04-20T07:43:34;99669.19;;;15.84;88.36
71149;BME280;59072;42.144;25.200;2023-04-20T07:46:00;99679.00;;;16.26;83.70
71149;BME280;59072;42.144;25.200;2023-04-20T07:48:25;99690.81;;;16.20;79.45
71149;BME280;59072;42.144;25.200;2023-04-20T07:50:51;99680.63;;;16.32;80.02
71149;BME280;59072;42.144;25.200;2023-04-20T07:53:16;99689.81;;;16.52;75.81
71149;BME280;59072;42.144;25.200;2023-04-20T07:55:41;99686.53;;;16.24;77.07
71149;BME280;59072;42.144;25.200;2023-04-20T07:58:07;99683.63;;;16.61;76.59
71149;BME280;59072;42.144;25.200;2023-04-20T08:00:32;99688.47;;;16.59;76.11
71149;BME280;59072;42.144;25.200;2023-04-20T08:02:58;99691.44;;;16.63;71.22
71149;BME280;59072;42.144;25.200;2023-04-20T08:05:23;99681.22;;;16.80;70.31
71149;BME280;59072;42.144;25.200;2023-04-20T08:07:49;99683.94;;;16.91;69.46
71149;BME280;59072;42.144;25.200;2023-04-20T08:10:15;99686.56;;;16.50;67.64
71149;BME280;59072;42.144;25.200;2023-04-20T08:12:40;99682.81;;;16.61;69.63
71149;BME280;59072;42.144;25.200;2023-04-20T08:15:06;99664.50;;;16.53;67.86
71149;BME280;59072;42.144;25.200;2023-04-20T08:17:32;99680.16;;;16.81;69.27
71149;BME280;59072;42.144;25.200;2023-04-20T08:19:58;99680.69;;;16.94;65.74
71149;BME280;59072;42.144;25.200;2023-04-20T08:22:23;99687.44;;;16.96;67.37
71149;BME280;59072;42.144;25.200;2023-04-20T08:24:51;99682.31;;;16.84;66.85
71149;BME280;59072;42.144;25.200;2023-04-20T08:27:17;99667.19;;;17.30;64.73
71149;BME280;59072;42.144;25.200;2023-04-20T08:29:42;99681.22;;;17.11;60.29
71149;BME280;59072;42.144;25.200;2023-04-20T08:32:08;99677.44;;;17.33;61.52
71149;BME280;59072;42.144;25.200;2023-04-20T08:34:34;99677.38;;;17.48;61.07
71149;BME280;59072;42.144;25.200;2023-04-20T08:36:59;99665.97;;;17.72;64.35
71149;BME280;59072;42.144;25.200;2023-04-20T08:39:25;99681.75;;;18.09;61.45
71149;BME280;59072;42.144;25.200;2023-04-20T08:41:50;99667.88;;;18.26;61.77
71149;BME280;59072;42.144;25.200;2023-04-20T08:44:20;99680.47;;;17.96;59.37
71149;BME280;59072;42.144;25.200;2023-04-20T08:46:47;99665.28;;;18.11;59.40
71149;BME280;59072;42.144;25.200;2023-04-20T08:49:17;99678.78;;;18.11;59.61
71149;BME280;59072;42.144;25.200;2023-04-20T08:51:44;99673.00;;;17.67;59.85
71149;BME280;59072;42.144;25.200;2023-04-20T08:54:10;99668.16;;;17.64;63.61
71149;BME280;59072;42.144;25.200;2023-04-20T08:56:43;99661.66;;;17.71;63.65
71149;BME280;59072;42.144;25.200;2023-04-20T08:59:09;99663.81;;;17.68;59.59
71149;BME280;59072;42.144;25.200;2023-04-20T09:01:42;99660.59;;;17.66;59.62
71149;BME280;59072;42.144;25.200;2023-04-20T09:04:18;99659.13;;;18.00;61.46
71149;BME280;59072;42.144;25.200;2023-04-20T09:06:45;99670.75;;;18.00;60.21
71149;BME280;59072;42.144;25.200;2023-04-20T09:09:11;99656.03;;;18.22;57.90
71149;BME280;59072;42.144;25.200;2023-04-20T09:11:36;99655.69;;;18.39;58.22
71149;BME280;59072;42.144;25.200;2023-04-20T09:14:04;99651.22;;;18.19;55.77
71149;BME280;59072;42.144;25.200;2023-04-20T09:16:37;99666.69;;;18.42;55.75
71149;BME280;59072;42.144;25.200;2023-04-20T09:19:04;99672.59;;;18.50;56.40
71149;BME280;59072;42.144;25.200;2023-04-20T09:21:29;99668.94;;;18.30;56.25
71149;BME280;59072;42.144;25.200;2023-04-20T09:26:25;99656.06;;;18.56;54.95
71149;BME280;59072;42.144;25.200;2023-04-20T09:28:50;99666.59;;;18.58;53.59
71149;BME280;59072;42.144;25.200;2023-04-20T09:31:18;99656.91;;;18.91;54.41
71149;BME280;59072;42.144;25.200;2023-04-20T09:33:43;99660.63;;;18.95;55.70
71149;BME280;59072;42.144;25.200;2023-04-20T09:36:09;99650.94;;;19.18;52.24
71149;BME280;59072;42.144;25.200;2023-04-20T09:38:35;99647.47;;;19.42;52.49
71149;BME280;59072;42.144;25.200;2023-04-20T09:41:01;99655.81;;;19.70;51.79
71149;BME280;59072;42.144;25.200;2023-04-20T09:43:27;99639.34;;;19.18;52.10
71149;BME280;59072;42.144;25.200;2023-04-20T09:45:54;99639.22;;;19.28;52.03
71149;BME280;59072;42.144;25.200;2023-04-20T09:48:20;99655.94;;;19.35;51.63
71149;BME280;59072;42.144;25.200;2023-04-20T09:50:47;99640.13;;;19.72;45.50
71149;BME280;59072;42.144;25.200;2023-04-20T09:53:15;99644.03;;;20.03;51.50
71149;BME280;59072;42.144;25.200;2023-04-20T09:55:47;99622.59;;;20.07;46.15
71149;BME280;59072;42.144;25.200;2023-04-20T09:58:13;99625.31;;;20.07;50.18
71149;BME280;59072;42.144;25.200;2023-04-20T10:00:38;99638.94;;;20.54;46.34
71149;BME280;59072;42.144;25.200;2023-04-20T10:03:04;99611.34;;;20.19;46.54
71149;BME280;59072;42.144;25.200;2023-04-20T10:05:36;99617.69;;;19.90;45.98
71149;BME280;59072;42.144;25.200;2023-04-20T10:08:04;99620.91;;;19.92;42.49
71149;BME280;59072;42.144;25.200;2023-04-20T10:10:30;99606.50;;;20.16;44.65
71149;BME280;59072;42.144;25.200;2023-04-20T10:13:06;99616.88;;;20.27;44.15
71149;BME280;59072;42.144;25.200;2023-04-20T10:15:39;99615.09;;;20.89;45.12
71149;BME280;59072;42.144;25.200;2023-04-20T10:18:21;99603.38;;;21.62;41.94
71149;BME280;59072;42.144;25.200;2023-04-20T10:20:49;99605.69;;;21.27;41.04
71149;BME280;59072;42.144;25.200;2023-04-20T10:23:15;99586.19;;;20.98;41.85
71149;BME280;59072;42.144;25.200;2023-04-20T10:25:42;99600.16;;;21.60;41.33
71149;BME280;59072;42.144;25.200;2023-04-20T10:28:18;99596.38;;;21.98;42.46
71149;BME280;59072;42.144;25.200;2023-04-20T10:30:51;99600.09;;;21.52;42.43
71149;BME280;59072;42.144;25.200;2023-04-20T10:33:17;99597.53;;;21.00;40.70
71149;BME280;59072;42.144;25.200;2023-04-20T10:35:54;99590.97;;;20.73;44.36
71149;BME280;59072;42.144;25.200;2023-04-20T10:38:33;99594.84;;;21.27;50.20
71149;BME280;59072;42.144;25.200;2023-04-20T10:41:09;99588.16;;;21.89;40.80
71149;BME280;59072;42.144;25.200;2023-04-20T10:43:34;99579.69;;;21.54;46.75
71149;BME280;59072;42.144;25.200;2023-04-20T10:46:00;99607.75;;;22.22;39.36
71149;BME280;59072;42.144;25.200;2023-04-20T10:48:25;99596.59;;;22.46;38.16
71149;BME280;59072;42.144;25.200;2023-04-20T10:50:51;99595.84;;;22.10;38.34
71149;BME280;59072;42.144;25.200;2023-04-20T10:53:21;99595.09;;;21.81;37.52
71149;BME280;59072;42.144;25.200;2023-04-20T10:55:57;99581.72;;;21.85;39.23
71149;BME280;59072;42.144;25.200;2023-04-20T10:58:23;99597.50;;;22.33;37.51
71149;BME280;59072;42.144;25.200;2023-04-20T11:01:04;99600.31;;;23.04;39.00
71149;BME280;59072;42.144;25.200;2023-04-20T11:03:30;99593.56;;;23.42;33.38
71149;BME280;59072;42.144;25.200;2023-04-20T11:05:57;99597.81;;;23.74;32.19
71149;BME280;59072;42.144;25.200;2023-04-20T11:08:39;99600.97;;;23.50;32.53
71149;BME280;59072;42.144;25.200;2023-04-20T11:11:16;99585.16;;;23.12;38.02
71149;BME280;59072;42.144;25.200;2023-04-20T11:13:42;99586.38;;;23.46;38.31
71149;BME280;59072;42.144;25.200;2023-04-20T11:16:15;99592.03;;;23.76;33.77
71149;BME280;59072;42.144;25.200;2023-04-20T11:18:52;99589.00;;;24.56;36.98
71149;BME280;59072;42.144;25.200;2023-04-20T11:21:19;99587.59;;;24.15;34.27
71149;BME280;59072;42.144;25.200;2023-04-20T11:23:44;99584.41;;;24.21;33.46
71149;BME280;59072;42.144;25.200;2023-04-20T11:26:10;99578.88;;;23.60;34.83
71149;BME280;59072;42.144;25.200;2023-04-20T11:28:36;99565.53;;;23.41;37.18
71149;BME280;59072;42.144;25.200;2023-04-20T11:31:02;99572.72;;;23.95;35.64
71149;BME280;59072;42.144;25.200;2023-04-20T11:33:29;99560.34;;;23.80;34.39
71149;BME280;59072;42.144;25.200;2023-04-20T11:35:59;99567.22;;;22.80;36.29
71149;BME280;59072;42.144;25.200;2023-04-20T11:38:30;99565.81;;;22.82;36.68
71149;BME280;59072;42.144;25.200;2023-04-20T11:40:56;99559.78;;;22.18;37.45
71149;BME280;59072;42.144;25.200;2023-04-20T11:43:23;99546.31;;;21.90;40.80
71149;BME280;59072;42.144;25.200;2023-04-20T11:45:48;99547.09;;;22.50;38.65
71149;BME280;59072;42.144;25.200;2023-04-20T11:48:14;99544.00;;;22.42;37.54
71149;BME280;59072;42.144;25.200;2023-04-20T11:50:39;99550.75;;;22.76;38.33
71149;BME280;59072;42.144;25.200;2023-04-20T11:53:05;99548.44;;;22.61;38.88
71149;BME280;59072;42.144;25.200;2023-04-20T11:55:31;99549.13;;;23.73;36.45
71149;BME280;59072;42.144;25.200;2023-04-20T11:57:56;99552.66;;;23.82;35.74
71149;BME280;59072;42.144;25.200;2023-04-20T12:00:22;99550.28;;;23.80;36.60
71149;BME280;59072;42.144;25.200;2023-04-20T12:02:47;99543.69;;;23.90;35.23
71149;BME280;59072;42.144;25.200;2023-04-20T12:05:13;99538.09;;;23.86;34.74
71149;BME280;59072;42.144;25.200;2023-04-20T12:07:38;99532.78;;;23.90;34.67
71149;BME280;59072;42.144;25.200;2023-04-20T12:10:05;99548.31;;;24.42;33.79
71149;BME280;59072;42.144;25.200;2023-04-20T12:12:31;99534.28;;;25.08;33.82
71149;BME280;59072;42.144;25.200;2023-04-20T12:14:56;99538.31;;;25.02;30.93
71149;BME280;59072;42.144;25.200;2023-04-20T12:17:22;99525.31;;;25.08;31.88
71149;BME280;59072;42.144;25.200;2023-04-20T12:19:47;99547.13;;;24.69;30.28
71149;BME280;59072;42.144;25.200;2023-04-20T12:22:12;99543.78;;;24.63;31.90
71149;BME280;59072;42.144;25.200;2023-04-20T12:24:38;99540.94;;;24.90;32.10
71149;BME280;59072;42.144;25.200;2023-04-20T12:27:03;99522.63;;;25.29;33.65
71149;BME280;59072;42.144;25.200;2023-04-20T12:29:30;99543.78;;;25.02;33.94
71149;BME280;59072;42.144;25.200;2023-04-20T12:31:57;99522.97;;;24.50;35.81
71149;BME280;59072;42.144;25.200;2023-04-20T12:34:22;99528.66;;;25.13;34.85
71149;BME280;59072;42.144;25.200;2023-04-20T12:36:48;99523.38;;;25.08;34.07
71149;BME280;59072;42.144;25.200;2023-04-20T12:39:13;99522.63;;;24.52;35.27
71149;BME280;59072;42.144;25.200;2023-04-20T12:41:40;99519.44;;;24.41;34.50
71149;BME280;59072;42.144;25.200;2023-04-20T12:44:05;99518.88;;;24.74;34.12
71149;BME280;59072;42.144;25.200;2023-04-20T12:46:31;99524.38;;;24.65;36.70